หน้าหลัก
METAR-TAF:

METAR-TAF

ท่าอากาศยาน :

ท่าอากาศยานนานาชาติโตเกียว, ญี่ปุ่น

ละติจูด: 35-33N, ลองจิจูด: 139-47E, ความสูง: 5 ม.

การสังเกตสภาพอากาศปัจจุบัน

รายงานได้ทำขึ้นเมื่อ 38 นาทีที่แล้ว ณ เวลา 04:30 UTC
ลม 13 นอตจากใต้
อุณหภูมิ 26°C
ความชื้น 61%
ความกดอากาศ 1005 hPa
ทัศนวิสัย 10 กม. หรือมากกว่า
ไม่มีเมฆต่ำกว่า 1,500 ม. และไม่มีเมฆคิวมูโลนิมบัส

METAR: RJTT 240430Z 18013KT CAVOK 26/18 Q1005 NOSIG RMK A2969

เวลา: 14:08 (05:08 UTC)

การพยากรณ์

รายงานได้ทำขึ้นเมื่อ 6 ชั่วโมงและ 3 นาทีที่แล้ว ณ เวลา 23:05 UTC
การพยากรณ์มีผลตั้งแต่วันที่ 24 ณ เวลา 00 UTC จนถึงวันที่ 25 ณ เวลา 06 UTC
ลม 5 นอตจากตะวันออก/ตะวันออกเฉียงใต้
ทัศนวิสัย 10 กม. หรือมากกว่า
มีเมฆน้อยที่ความสูง 2000 ฟุต
กำลังกลายเป็น
ตั้งแต่วันที่ 24 ณ เวลา 03 UTC จนถึงวันที่ 24 ณ เวลา 05 UTC
ลม 10 นอตจากใต้
กำลังกลายเป็น
ตั้งแต่วันที่ 24 ณ เวลา 12 UTC จนถึงวันที่ 24 ณ เวลา 15 UTC
ลม 14 นอตจากเหนือ
กำลังกลายเป็น
ตั้งแต่วันที่ 25 ณ เวลา 00 UTC จนถึงวันที่ 25 ณ เวลา 03 UTC
ลม 8 นอตจากตะวันออก

TAF: RJTT 232305Z 2400/2506 12005KT 9999 FEW020 BECMG 2403/2405 19010KT BECMG 2412/2415 36014KT BECMG 2500/2503 08008KT

สังเกตการณ์สภาพอากาศและพยากรณ์อากาศของสนามบินมากกว่า 4000 แห่ง (รายงาน METAR และ TAF).

สถานีที่ดูได้จะแสดงไว้ด้วยจุดสีเหลืองและสีแดงบนแผนที่.

เลื่อนเมาส์ไปเหนือจุดเพื่อดูชื่อสถานี.

แล้วคลิกเพื่อดูสังเกตการณ์และการพยากรณ์สภาพอากาศ.

ในการเปลี่ยนแผนที่: คลิกที่ปุ่มสีเขียวที่มีกากบาทสีดำเพื่อซูมเข้า; ที่ปุ่มสีเขียวที่มีขีดเพื่อซูมออก; หรือที่ลูกศรสีเขียวเพื่อไปยังแผนที่ที่อยู่ติดกัน.


METAR-TAF: